Time;durP1;ratioP1;P1;durP2;ratioP2;P2;SDS_P1;SDS_P2;PMS_P1;PMS_P2;Temp;Humidity;BMP_temperature;BMP_pressure;BME280_temperature;BME280_humidity;BME280_pressure;Samples;Min_cycle;Max_cycle;Signal;HPM_P1;HPM_P2
2022/03/17 00:01:10;;;;;;;9.90;9.00;;;10.20;99.90;;;;;;5055572;28;20472;-47
2022/03/17 00:03:39;;;;;;;11.17;9.23;;;10.20;99.90;;;;;;5071032;28;20457;-49
2022/03/17 00:06:08;;;;;;;13.13;11.07;;;10.20;99.90;;;;;;5065584;28;20825;-47
2022/03/17 00:08:36;;;;;;;10.43;8.43;;;10.20;99.90;;;;;;5050798;28;20910;-47
2022/03/17 00:11:04;;;;;;;15.00;11.67;;;10.20;99.90;;;;;;5050556;28;20458;-47
2022/03/17 00:13:32;;;;;;;11.60;9.60;;;10.20;99.90;;;;;;5051029;28;20467;-46
2022/03/17 00:16:00;;;;;;;14.57;11.10;;;10.20;99.90;;;;;;5057364;28;20472;-48
2022/03/17 00:18:28;;;;;;;13.20;11.90;;;10.20;99.90;;;;;;5070046;28;20816;-47
2022/03/17 00:21:00;;;;;;;10.47;9.33;;;10.20;99.90;;;;;;5067811;28;20492;-47
2022/03/17 00:23:28;;;;;;;11.73;10.53;;;10.20;99.90;;;;;;5057842;28;20599;-48
2022/03/17 00:25:57;;;;;;;13.33;11.87;;;10.20;99.90;;;;;;5069256;28;21026;-47
2022/03/17 00:28:25;;;;;;;10.20;9.10;;;10.20;99.90;;;;;;5069682;28;20438;-48
2022/03/17 00:30:53;;;;;;;13.37;11.67;;;10.20;99.90;;;;;;5063548;28;20454;-48
2022/03/17 00:33:21;;;;;;;11.77;8.77;;;10.20;99.90;;;;;;5070119;28;20473;-48
2022/03/17 00:35:49;;;;;;;10.00;9.00;;;10.20;99.90;;;;;;5050883;28;20466;-49
2022/03/17 00:38:20;;;;;;;10.37;9.37;;;10.20;99.90;;;;;;5049085;28;20869;-47
2022/03/17 00:40:48;;;;;;;10.23;8.27;;;10.20;99.90;;;;;;5068599;28;20430;-47
2022/03/17 00:43:17;;;;;;;10.20;9.17;;;10.20;99.90;;;;;;5069587;28;20914;-48
2022/03/17 00:45:47;;;;;;;9.60;7.97;;;10.10;99.90;;;;;;5066373;28;20846;-49
2022/03/17 00:48:15;;;;;;;9.73;8.73;;;10.20;99.90;;;;;;5068455;28;20505;-47
2022/03/17 00:50:44;;;;;;;12.03;10.43;;;10.10;99.90;;;;;;5076237;28;20465;-47
2022/03/17 00:53:12;;;;;;;11.43;10.00;;;10.10;99.90;;;;;;5043365;28;20489;-47
2022/03/17 00:55:42;;;;;;;12.77;9.83;;;10.10;99.90;;;;;;5077856;28;20430;-47
2022/03/17 00:58:10;;;;;;;14.90;11.20;;;10.10;99.90;;;;;;5072709;22;20496;-47
2022/03/17 01:00:38;;;;;;;10.80;9.37;;;10.10;99.90;;;;;;5055869;28;20443;-47
2022/03/17 01:03:06;;;;;;;11.43;9.77;;;10.10;99.90;;;;;;5057043;28;20489;-48
2022/03/17 01:05:36;;;;;;;12.17;9.23;;;10.10;99.90;;;;;;5056411;28;20530;-48
2022/03/17 01:08:04;;;;;;;8.83;7.90;;;10.10;99.90;;;;;;5073755;28;20466;-47
2022/03/17 01:10:33;;;;;;;9.63;8.53;;;10.10;99.90;;;;;;5076480;28;20458;-49
2022/03/17 01:13:03;;;;;;;13.87;9.10;;;10.10;99.90;;;;;;5075732;28;20484;-50
2022/03/17 01:15:31;;;;;;;9.60;8.57;;;10.10;99.90;;;;;;5076287;28;20445;-46
2022/03/17 01:17:59;;;;;;;10.43;9.33;;;10.10;99.90;;;;;;5075355;28;21003;-50
2022/03/17 01:20:29;;;;;;;11.00;9.90;;;10.10;99.90;;;;;;5076700;28;20457;-50
2022/03/17 01:22:57;;;;;;;12.87;9.23;;;10.10;99.90;;;;;;5063209;28;20474;-47
2022/03/17 01:25:25;;;;;;;12.63;9.77;;;10.10;99.90;;;;;;5055922;28;21007;-48
2022/03/17 01:27:53;;;;;;;12.13;10.57;;;10.10;99.90;;;;;;5055388;28;21066;-47
2022/03/17 01:30:22;;;;;;;11.00;9.90;;;10.10;99.90;;;;;;5064368;28;20836;-49
2022/03/17 01:32:50;;;;;;;11.90;10.40;;;10.10;99.90;;;;;;5076091;28;20552;-48
2022/03/17 01:35:19;;;;;;;12.23;10.40;;;10.10;99.90;;;;;;5070015;28;20484;-49
2022/03/17 01:37:47;;;;;;;12.20;8.30;;;10.10;99.90;;;;;;5061555;28;20470;-48
2022/03/17 01:40:15;;;;;;;12.20;10.47;;;10.10;99.90;;;;;;5038216;28;20446;-45
2022/03/17 01:42:43;;;;;;;11.20;8.70;;;10.10;99.90;;;;;;5055833;28;20470;-47
2022/03/17 01:45:11;;;;;;;11.30;10.07;;;10.10;99.90;;;;;;5038527;28;20430;-46
2022/03/17 01:47:41;;;;;;;12.50;9.70;;;10.10;99.90;;;;;;5058322;28;20569;-47
2022/03/17 01:50:11;;;;;;;14.70;10.77;;;10.10;99.90;;;;;;5056502;28;20492;-48
2022/03/17 01:52:40;;;;;;;11.07;9.60;;;10.10;99.90;;;;;;5070265;28;20568;-46
2022/03/17 01:55:10;;;;;;;12.00;9.97;;;10.10;99.90;;;;;;5075215;28;20928;-48
2022/03/17 01:57:39;;;;;;;13.37;9.87;;;10.10;99.90;;;;;;5075692;28;20458;-47
2022/03/17 02:00:10;;;;;;;11.77;10.50;;;10.10;99.90;;;;;;5071029;28;20447;-46
2022/03/17 02:02:42;;;;;;;12.37;10.03;;;10.10;99.90;;;;;;5051705;28;20474;-49
2022/03/17 02:05:11;;;;;;;12.23;10.93;;;10.10;99.90;;;;;;5065742;28;20438;-46
2022/03/17 02:07:42;;;;;;;11.73;9.77;;;10.10;99.90;;;;;;5052966;28;20465;-48
2022/03/17 02:10:10;;;;;;;10.50;9.40;;;10.10;99.90;;;;;;5053276;28;20439;-47
2022/03/17 02:15:27;;;;;;;12.30;10.50;;;10.10;99.90;;;;;;5052386;28;20868;-46
2022/03/17 02:17:57;;;;;;;11.10;9.90;;;10.10;99.90;;;;;;5071186;28;20833;-48
2022/03/17 02:20:26;;;;;;;11.73;10.50;;;10.10;99.90;;;;;;5057638;28;20431;-49
2022/03/17 02:25:33;;;;;;;12.27;9.90;;;10.10;99.90;;;;;;5059327;28;20893;-46
2022/03/17 02:25:47;;;;;;;11.57;10.37;;;10.10;99.90;;;;;;5072193;28;20782;-47
2022/03/17 02:28:16;;;;;;;15.20;11.20;;;10.10;99.90;;;;;;5071951;28;20584;-49
2022/03/17 02:30:45;;;;;;;13.00;10.73;;;10.10;99.90;;;;;;5070685;28;20857;-48
2022/03/17 02:33:16;;;;;;;13.33;10.60;;;10.10;99.90;;;;;;5058490;28;20554;-46
2022/03/17 02:35:45;;;;;;;12.23;10.40;;;10.10;99.90;;;;;;5051797;28;20435;-47
2022/03/17 02:38:14;;;;;;;14.77;11.40;;;10.10;99.90;;;;;;5071796;28;20490;-48
2022/03/17 02:40:45;;;;;;;11.93;10.67;;;10.10;99.90;;;;;;5072602;28;20488;-48
2022/03/17 02:43:15;;;;;;;13.07;11.73;;;10.10;99.90;;;;;;5071535;28;20527;-49
2022/03/17 02:45:45;;;;;;;12.60;11.33;;;10.10;99.90;;;;;;5058860;28;20529;-48
2022/03/17 02:48:13;;;;;;;14.23;11.77;;;10.10;99.90;;;;;;5071446;28;20470;-47
2022/03/17 02:50:42;;;;;;;11.60;10.00;;;10.10;99.90;;;;;;5072079;28;20442;-47
2022/03/17 02:53:11;;;;;;;14.03;11.43;;;10.10;99.90;;;;;;5069795;28;20485;-50
2022/03/17 02:55:40;;;;;;;12.40;11.10;;;10.10;99.90;;;;;;5071150;28;20434;-50
2022/03/17 02:58:10;;;;;;;12.87;11.27;;;10.10;99.90;;;;;;5065844;28;20459;-48
2022/03/17 03:00:39;;;;;;;16.10;12.40;;;10.10;99.90;;;;;;5061872;28;20447;-49
2022/03/17 03:03:08;;;;;;;13.53;11.00;;;10.10;99.90;;;;;;5051355;28;20475;-47
2022/03/17 03:05:38;;;;;;;14.07;11.70;;;10.10;99.90;;;;;;5051136;28;20453;-50
2022/03/17 03:08:06;;;;;;;14.37;11.60;;;10.10;99.90;;;;;;5068611;28;20497;-51
2022/03/17 03:10:34;;;;;;;20.03;13.07;;;10.10;99.90;;;;;;5071585;28;20469;-48
2022/03/17 03:13:03;;;;;;;12.73;10.33;;;10.10;99.90;;;;;;5070660;28;20474;-48
2022/03/17 03:15:32;;;;;;;12.13;10.80;;;10.10;99.90;;;;;;5065454;28;20431;-51
2022/03/17 03:18:00;;;;;;;15.27;11.20;;;10.10;99.90;;;;;;5069513;28;20981;-48
2022/03/17 03:20:29;;;;;;;11.93;10.60;;;10.10;99.90;;;;;;5071385;28;20430;-49
2022/03/17 03:22:58;;;;;;;11.57;10.13;;;10.10;99.90;;;;;;5070727;28;20498;-48
2022/03/17 03:25:26;;;;;;;13.00;10.43;;;10.10;99.90;;;;;;5054113;28;20434;-47
2022/03/17 03:27:54;;;;;;;13.23;9.97;;;10.10;99.90;;;;;;5071334;28;20516;-48
2022/03/17 03:30:22;;;;;;;16.67;10.80;;;10.10;99.90;;;;;;5072339;28;20442;-48
2022/03/17 03:32:51;;;;;;;12.17;10.70;;;10.10;99.90;;;;;;5071400;28;20504;-47
2022/03/17 03:38:05;;;;;;;11.00;8.80;;;10.10;99.90;;;;;;5070550;28;20826;-49
2022/03/17 03:40:33;;;;;;;13.90;10.77;;;10.10;99.90;;;;;;5072399;28;20486;-47
2022/03/17 03:43:01;;;;;;;13.20;10.77;;;10.10;99.90;;;;;;5059758;28;20574;-49
2022/03/17 03:45:29;;;;;;;12.70;10.53;;;10.10;99.90;;;;;;5053016;28;20526;-49
2022/03/17 03:47:58;;;;;;;10.50;9.40;;;10.10;99.90;;;;;;5069760;28;20550;-48
2022/03/17 03:50:28;;;;;;;11.63;10.53;;;10.10;99.90;;;;;;5070339;28;20473;-46
2022/03/17 03:52:56;;;;;;;13.50;10.43;;;10.10;99.90;;;;;;5069230;28;21016;-48
2022/03/17 03:55:24;;;;;;;11.33;9.60;;;10.10;99.90;;;;;;5069957;28;20465;-46
2022/03/17 03:57:52;;;;;;;11.20;10.00;;;10.10;99.90;;;;;;5069609;28;21056;-48
2022/03/17 04:00:33;;;;;;;12.80;10.53;;;10.10;99.90;;;;;;5068909;28;20437;-47
2022/03/17 04:03:04;;;;;;;11.20;9.90;;;10.10;99.90;;;;;;5048991;28;20985;-47
2022/03/17 04:05:34;;;;;;;12.20;10.00;;;10.10;99.90;;;;;;5058048;28;20497;-48
2022/03/17 04:08:03;;;;;;;11.40;9.47;;;10.10;99.90;;;;;;5053902;28;20469;-50
2022/03/17 04:10:32;;;;;;;11.40;10.20;;;10.10;99.90;;;;;;5050385;28;20431;-49
2022/03/17 04:13:01;;;;;;;12.40;11.10;;;10.10;99.90;;;;;;5049750;28;21028;-49
2022/03/17 04:15:29;;;;;;;13.77;9.47;;;10.10;99.90;;;;;;5050422;28;20466;-47
2022/03/17 04:17:57;;;;;;;10.77;9.63;;;10.10;99.90;;;;;;5049789;28;20462;-46
2022/03/17 04:20:27;;;;;;;9.93;8.83;;;10.10;99.90;;;;;;5049647;28;20455;-48
2022/03/17 04:22:54;;;;;;;11.43;9.73;;;10.10;99.90;;;;;;5066457;28;21064;-47
2022/03/17 04:25:23;;;;;;;11.97;9.93;;;10.10;99.90;;;;;;5068946;28;20480;-49
2022/03/17 04:27:50;;;;;;;10.17;8.80;;;10.10;99.90;;;;;;5050797;28;20802;-49
2022/03/17 04:30:19;;;;;;;10.50;8.97;;;10.10;99.90;;;;;;5055747;28;20449;-46
2022/03/17 04:32:47;;;;;;;12.53;10.07;;;10.10;99.90;;;;;;5058914;28;20474;-46
2022/03/17 04:35:15;;;;;;;11.93;9.40;;;10.10;99.90;;;;;;5049732;28;20466;-49
2022/03/17 04:37:44;;;;;;;11.23;8.90;;;10.10;99.90;;;;;;5064268;28;20545;-49
2022/03/17 04:40:14;;;;;;;9.97;8.87;;;10.10;99.90;;;;;;5050398;28;20833;-50
2022/03/17 04:42:42;;;;;;;11.03;9.50;;;10.10;99.90;;;;;;5060397;28;20471;-48
2022/03/17 04:45:10;;;;;;;9.00;7.50;;;10.10;99.90;;;;;;5054056;28;20472;-47
2022/03/17 04:47:38;;;;;;;10.23;8.10;;;10.10;99.90;;;;;;5060447;28;20609;-46
2022/03/17 04:50:07;;;;;;;10.57;9.30;;;10.10;99.90;;;;;;5053316;28;20985;-49
2022/03/17 04:55:23;;;;;;;10.43;9.33;;;10.10;99.90;;;;;;5049075;28;20476;-47
2022/03/17 04:57:51;;;;;;;9.63;8.63;;;10.10;99.90;;;;;;5049222;28;20747;-50
2022/03/17 05:00:19;;;;;;;10.83;8.77;;;10.10;99.90;;;;;;5051168;28;20471;-48
2022/03/17 05:02:47;;;;;;;9.53;8.60;;;10.10;99.90;;;;;;5069525;28;20542;-47
2022/03/17 05:05:15;;;;;;;10.13;9.00;;;10.00;99.90;;;;;;5069190;28;20956;-46
2022/03/17 05:07:43;;;;;;;10.03;8.70;;;10.10;99.90;;;;;;5066760;28;20486;-46
2022/03/17 05:10:11;;;;;;;9.93;8.93;;;10.10;99.90;;;;;;5049623;28;20462;-48
2022/03/17 05:12:41;;;;;;;8.77;7.90;;;10.10;99.90;;;;;;5049016;28;20521;-48
2022/03/17 05:15:09;;;;;;;9.97;8.50;;;10.10;99.90;;;;;;5052486;28;20434;-49
2022/03/17 05:17:40;;;;;;;11.23;8.23;;;10.10;99.90;;;;;;5051573;28;20561;-47
2022/03/17 05:20:11;;;;;;;9.20;7.10;;;10.10;99.90;;;;;;5069404;28;20943;-47
2022/03/17 05:22:39;;;;;;;9.93;7.67;;;10.10;99.90;;;;;;5067857;28;20461;-46
2022/03/17 05:25:09;;;;;;;10.37;8.80;;;10.10;99.90;;;;;;5048704;28;20493;-48
2022/03/17 05:27:38;;;;;;;9.87;8.07;;;10.10;99.90;;;;;;5048944;28;20513;-49
2022/03/17 05:30:13;;;;;;;8.33;7.40;;;10.10;99.90;;;;;;5049654;28;20463;-47
2022/03/17 05:32:41;;;;;;;7.97;7.17;;;10.10;99.90;;;;;;5064084;28;20515;-47
2022/03/17 05:35:11;;;;;;;10.10;7.70;;;10.10;99.90;;;;;;5049416;28;20508;-48
2022/03/17 05:37:40;;;;;;;8.60;6.33;;;10.10;99.90;;;;;;5059103;28;20493;-46
2022/03/17 05:40:14;;;;;;;8.90;7.20;;;10.10;99.90;;;;;;5053797;28;20435;-48
2022/03/17 05:42:43;;;;;;;8.07;7.30;;;10.10;99.90;;;;;;5052642;28;20493;-48
2022/03/17 05:45:14;;;;;;;8.17;7.40;;;10.10;99.90;;;;;;5062303;28;20434;-48
2022/03/17 05:47:45;;;;;;;9.47;7.47;;;10.10;99.90;;;;;;5054543;28;20562;-46
2022/03/17 05:50:14;;;;;;;9.47;8.00;;;10.10;99.90;;;;;;5035345;28;20537;-48
2022/03/17 05:52:43;;;;;;;9.37;8.30;;;10.10;99.90;;;;;;5066078;28;20458;-49
2022/03/17 05:55:12;;;;;;;8.73;7.83;;;10.10;99.90;;;;;;5052521;28;20431;-46
2022/03/17 05:57:42;;;;;;;9.73;8.00;;;10.10;99.90;;;;;;5052067;28;20466;-49
2022/03/17 06:00:14;;;;;;;8.67;7.77;;;10.10;99.90;;;;;;5053062;28;20437;-48
2022/03/17 06:02:42;;;;;;;8.93;8.07;;;10.10;99.90;;;;;;5051169;28;20477;-49
2022/03/17 06:05:11;;;;;;;10.17;8.90;;;10.10;99.90;;;;;;5052177;28;21041;-49
2022/03/17 06:07:42;;;;;;;8.63;7.80;;;10.10;99.90;;;;;;5066263;28;20562;-48
2022/03/17 06:10:12;;;;;;;8.33;7.37;;;10.10;99.90;;;;;;5068944;28;20532;-48
2022/03/17 06:12:41;;;;;;;10.17;8.80;;;10.10;99.90;;;;;;5054657;28;20469;-48
2022/03/17 06:15:09;;;;;;;13.80;9.47;;;10.10;99.90;;;;;;5055117;28;20541;-47
2022/03/17 06:17:40;;;;;;;10.47;9.37;;;10.10;99.90;;;;;;5051991;28;20638;-49
2022/03/17 06:20:10;;;;;;;10.47;9.07;;;10.10;99.90;;;;;;5052631;28;20427;-47
2022/03/17 06:22:40;;;;;;;10.50;9.20;;;10.10;99.90;;;;;;5058126;28;20467;-50
2022/03/17 06:25:10;;;;;;;10.40;8.50;;;10.00;99.90;;;;;;5052303;28;20423;-48
2022/03/17 06:27:38;;;;;;;9.70;8.30;;;10.10;99.90;;;;;;5051234;28;20600;-47
2022/03/17 06:30:08;;;;;;;12.03;9.00;;;10.10;99.90;;;;;;5052419;28;20546;-48
2022/03/17 06:32:38;;;;;;;11.23;9.00;;;10.00;99.90;;;;;;5069652;28;20481;-47
2022/03/17 06:35:09;;;;;;;10.80;9.43;;;10.10;99.90;;;;;;5051995;28;20953;-47
2022/03/17 06:37:38;;;;;;;11.57;8.90;;;10.10;99.90;;;;;;5064918;28;20458;-49
2022/03/17 06:40:12;;;;;;;12.73;9.43;;;10.10;99.90;;;;;;5072229;28;20457;-49
2022/03/17 06:42:40;;;;;;;11.13;9.20;;;10.10;99.90;;;;;;5063485;28;20470;-48
2022/03/17 06:45:09;;;;;;;11.37;9.90;;;10.00;99.90;;;;;;5063617;28;20449;-46
2022/03/17 06:47:38;;;;;;;11.40;10.20;;;10.10;99.90;;;;;;5071684;28;20806;-47
2022/03/17 06:50:09;;;;;;;11.43;8.90;;;10.00;99.90;;;;;;5054654;28;20576;-49
2022/03/17 06:52:37;;;;;;;10.67;9.17;;;10.00;99.90;;;;;;5070515;28;20532;-47
2022/03/17 06:55:06;;;;;;;12.53;10.47;;;10.00;99.90;;;;;;5072141;28;20429;-49
2022/03/17 06:57:34;;;;;;;13.20;10.40;;;10.00;99.90;;;;;;5071787;28;20973;-47
2022/03/17 07:00:04;;;;;;;10.73;8.93;;;10.00;99.90;;;;;;5066271;28;20448;-47
2022/03/17 07:02:33;;;;;;;10.80;8.53;;;10.00;99.90;;;;;;5070226;28;21048;-46
2022/03/17 07:05:01;;;;;;;10.20;8.77;;;10.00;99.90;;;;;;5071833;28;20889;-46
2022/03/17 07:07:31;;;;;;;10.13;8.70;;;10.00;99.90;;;;;;5064422;28;20474;-47
2022/03/17 07:09:59;;;;;;;11.27;9.00;;;10.00;99.90;;;;;;5054591;28;20482;-47
2022/03/17 07:12:28;;;;;;;11.43;9.70;;;10.00;99.90;;;;;;5050738;28;20706;-48
2022/03/17 07:14:57;;;;;;;10.43;8.47;;;10.00;99.90;;;;;;5062486;28;20473;-49
2022/03/17 07:17:26;;;;;;;10.63;9.30;;;10.00;99.90;;;;;;5060756;28;20486;-47
2022/03/17 07:20:00;;;;;;;10.57;9.57;;;10.00;99.90;;;;;;5050793;28;20926;-46
2022/03/17 07:22:29;;;;;;;11.20;10.00;;;10.00;99.90;;;;;;5060943;28;20466;-50
2022/03/17 07:24:58;;;;;;;11.57;10.27;;;10.00;99.90;;;;;;5051418;28;20439;-48
2022/03/17 07:27:27;;;;;;;12.40;9.70;;;10.00;99.90;;;;;;5050661;28;20490;-48
2022/03/17 07:29:55;;;;;;;9.60;8.60;;;10.00;99.90;;;;;;5049886;28;20961;-47
2022/03/17 07:32:24;;;;;;;10.77;9.60;;;10.00;99.90;;;;;;5050298;28;20547;-46
2022/03/17 07:34:52;;;;;;;11.40;9.00;;;10.00;99.90;;;;;;5059455;28;20461;-49
2022/03/17 07:37:20;;;;;;;10.73;8.90;;;10.00;99.90;;;;;;5068892;28;20470;-49
2022/03/17 07:39:49;;;;;;;12.17;10.33;;;10.00;99.90;;;;;;5071117;28;20476;-49
2022/03/17 07:42:18;;;;;;;11.97;9.47;;;10.00;99.90;;;;;;5053295;28;20474;-48
2022/03/17 07:45:15;;;;;;;11.97;8.97;;;10.00;99.90;;;;;;5063472;28;20526;-47
2022/03/17 07:48:07;;;;;;;10.50;8.00;;;10.00;99.90;;;;;;5016726;28;20467;-47
2022/03/17 07:50:38;;;;;;;9.07;8.13;;;10.00;99.90;;;;;;5067925;28;20485;-46
2022/03/17 07:53:06;;;;;;;10.67;9.17;;;10.00;99.90;;;;;;5059211;28;20870;-46
2022/03/17 07:55:34;;;;;;;8.80;7.87;;;10.00;99.90;;;;;;5049432;28;20489;-48
2022/03/17 07:58:04;;;;;;;9.77;8.50;;;10.00;99.90;;;;;;5052466;28;20521;-48
2022/03/17 08:00:32;;;;;;;9.60;8.20;;;10.00;99.90;;;;;;5060115;28;20442;-46
2022/03/17 08:03:04;;;;;;;8.37;7.50;;;10.00;99.90;;;;;;5069251;28;20470;-46
2022/03/17 08:05:32;;;;;;;9.97;8.90;;;10.00;99.90;;;;;;5070008;28;20442;-46
2022/03/17 08:08:02;;;;;;;9.97;7.97;;;10.00;99.90;;;;;;5068182;28;20880;-46
2022/03/17 08:10:30;;;;;;;9.33;7.87;;;10.00;99.90;;;;;;5069964;28;20481;-48
2022/03/17 08:12:59;;;;;;;9.33;8.00;;;10.00;99.90;;;;;;5066457;28;20547;-48
2022/03/17 08:15:29;;;;;;;8.77;7.20;;;10.00;99.90;;;;;;5062613;28;20446;-47
2022/03/17 08:17:57;;;;;;;8.93;7.43;;;10.00;99.90;;;;;;5069730;28;20993;-48
2022/03/17 08:20:26;;;;;;;8.40;7.47;;;10.00;99.90;;;;;;5070417;28;20441;-48
2022/03/17 08:22:55;;;;;;;9.90;7.53;;;10.00;99.90;;;;;;5067297;28;20476;-46
2022/03/17 08:25:23;;;;;;;8.20;7.23;;;10.00;99.90;;;;;;5069643;28;20442;-47
2022/03/17 08:27:51;;;;;;;9.20;7.40;;;10.00;99.90;;;;;;5069374;28;20470;-47
2022/03/17 08:30:19;;;;;;;6.80;6.10;;;10.00;99.90;;;;;;5065805;28;20511;-48
2022/03/17 08:32:49;;;;;;;8.80;7.27;;;10.00;99.90;;;;;;5049712;28;20528;-49
2022/03/17 08:35:17;;;;;;;9.60;7.53;;;10.00;99.90;;;;;;5049116;28;20434;-47
2022/03/17 08:37:47;;;;;;;9.97;7.67;;;10.00;99.90;;;;;;5059677;28;20542;-47
2022/03/17 08:40:16;;;;;;;8.07;7.27;;;10.00;99.90;;;;;;5070543;28;20586;-47
2022/03/17 08:42:44;;;;;;;7.73;6.93;;;10.00;99.90;;;;;;5068331;28;21012;-47
2022/03/17 08:50:47;;;;;;;8.57;7.43;;;10.00;99.90;;;;;;5050438;28;20466;-49
2022/03/17 08:53:15;;;;;;;8.07;6.77;;;10.00;99.90;;;;;;5055408;28;20623;-48
2022/03/17 08:55:44;;;;;;;7.23;5.83;;;10.00;99.90;;;;;;5050797;28;20434;-48
2022/03/17 08:58:12;;;;;;;7.07;6.37;;;10.00;99.90;;;;;;5062417;28;20511;-49
2022/03/17 09:00:41;;;;;;;7.97;6.67;;;10.00;99.90;;;;;;5063151;28;20438;-49
2022/03/17 09:03:11;;;;;;;6.70;5.60;;;10.00;99.90;;;;;;5058432;28;20471;-46
2022/03/17 09:05:41;;;;;;;8.20;6.30;;;10.00;99.90;;;;;;5066375;28;20536;-47
2022/03/17 09:08:09;;;;;;;6.43;5.73;;;10.00;99.90;;;;;;5054393;28;20483;-48
2022/03/17 09:10:39;;;;;;;6.57;5.90;;;10.00;99.90;;;;;;5051426;28;20459;-49
2022/03/17 09:13:08;;;;;;;7.43;5.60;;;10.00;99.90;;;;;;5057400;28;20873;-47
2022/03/17 09:15:38;;;;;;;6.40;5.80;;;10.00;99.90;;;;;;5068652;28;20442;-48
2022/03/17 09:18:08;;;;;;;7.27;5.53;;;10.00;99.90;;;;;;5053111;28;20524;-48
2022/03/17 09:20:38;;;;;;;6.93;5.50;;;10.00;99.90;;;;;;5053658;28;20419;-49
2022/03/17 09:23:07;;;;;;;5.47;4.80;;;10.00;99.90;;;;;;5068248;28;20746;-49
2022/03/17 09:25:36;;;;;;;5.20;4.70;;;10.00;99.90;;;;;;5073464;28;20445;-49
2022/03/17 09:28:05;;;;;;;5.47;4.97;;;10.00;99.90;;;;;;5072424;28;20466;-49
2022/03/17 09:30:34;;;;;;;5.90;4.83;;;10.00;99.90;;;;;;5062126;28;20489;-47
2022/03/17 09:33:04;;;;;;;4.83;4.43;;;10.00;99.90;;;;;;5061528;28;20892;-49
2022/03/17 09:35:34;;;;;;;6.23;5.63;;;10.00;99.90;;;;;;5073269;28;20433;-46
2022/03/17 09:38:06;;;;;;;6.00;5.37;;;10.00;99.90;;;;;;5071622;28;20470;-47
2022/03/17 09:40:35;;;;;;;7.90;6.30;;;10.00;99.90;;;;;;5073763;28;20821;-48
2022/03/17 09:43:21;;;;;;;6.63;5.60;;;10.00;99.90;;;;;;5053278;28;21011;-48
2022/03/17 09:45:52;;;;;;;5.00;4.57;;;10.00;99.90;;;;;;5058508;28;20497;-49
2022/03/17 09:48:23;;;;;;;5.73;5.23;;;10.00;99.90;;;;;;5067966;28;20480;-46
2022/03/17 09:50:55;;;;;;;4.60;4.07;;;10.00;99.90;;;;;;5053834;28;20486;-48
2022/03/17 09:53:31;;;;;;;5.90;4.73;;;10.00;99.90;;;;;;5054277;28;20562;-48
2022/03/17 09:56:00;;;;;;;7.23;4.70;;;10.00;99.90;;;;;;5067397;28;20465;-47
2022/03/17 09:58:28;;;;;;;7.37;4.80;;;10.00;99.90;;;;;;5066673;28;20466;-48
2022/03/17 10:00:59;;;;;;;5.87;5.30;;;10.00;99.90;;;;;;5064697;28;20522;-46
2022/03/17 10:03:29;;;;;;;5.83;5.03;;;10.00;99.90;;;;;;5061788;28;20473;-47
2022/03/17 10:05:58;;;;;;;5.40;4.10;;;10.00;99.90;;;;;;5065813;28;20446;-49
2022/03/17 10:08:29;;;;;;;5.87;4.83;;;10.00;99.90;;;;;;5062088;28;20462;-47
2022/03/17 10:10:57;;;;;;;4.93;4.47;;;10.00;99.90;;;;;;5053624;28;20501;-46
2022/03/17 10:13:28;;;;;;;7.80;5.30;;;10.00;99.90;;;;;;5052391;28;20459;-49
2022/03/17 10:16:07;;;;;;;5.17;4.67;;;10.00;99.90;;;;;;5073179;28;20465;-47
2022/03/17 10:18:37;;;;;;;5.37;4.67;;;10.00;99.90;;;;;;5062419;28;20542;-48
2022/03/17 10:21:10;;;;;;;5.23;4.73;;;10.00;99.90;;;;;;5054486;28;20423;-47
2022/03/17 10:23:49;;;;;;;5.63;4.80;;;10.00;99.90;;;;;;5070720;28;20964;-50
2022/03/17 10:26:38;;;;;;;5.63;4.80;;;10.00;99.90;;;;;;5057106;28;20440;-47
2022/03/17 10:29:12;;;;;;;5.47;4.30;;;10.00;99.90;;;;;;5073098;28;20795;-47
2022/03/17 10:31:50;;;;;;;4.87;4.37;;;10.00;99.90;;;;;;5070732;28;20458;-46
2022/03/17 10:34:19;;;;;;;5.30;4.80;;;10.00;99.90;;;;;;5060781;28;20421;-49
2022/03/17 10:36:48;;;;;;;5.38;4.88;;;10.00;99.90;;;;;;5069006;28;20464;-47
2022/03/17 10:39:19;;;;;;;6.57;4.87;;;10.00;99.90;;;;;;5072157;28;20190;-46
2022/03/17 10:41:48;;;;;;;6.63;5.33;;;10.00;99.90;;;;;;5070651;28;20466;-49
2022/03/17 10:44:19;;;;;;;4.70;4.27;;;10.00;99.90;;;;;;5070256;28;20436;-48
2022/03/17 10:47:01;;;;;;;8.63;5.80;;;10.00;99.90;;;;;;5063030;28;20534;-47
2022/03/17 10:49:30;;;;;;;4.80;4.27;;;10.00;99.90;;;;;;5061558;28;20431;-50
2022/03/17 10:51:58;;;;;;;5.10;4.63;;;10.00;99.90;;;;;;5059785;28;20857;-47
2022/03/17 10:54:28;;;;;;;5.67;5.07;;;10.00;99.90;;;;;;5060300;28;20434;-47
2022/03/17 10:57:04;;;;;;;5.90;5.33;;;10.00;99.90;;;;;;5071794;28;20488;-49
2022/03/17 10:59:39;;;;;;;5.37;4.17;;;10.00;99.90;;;;;;5057128;28;20462;-47
2022/03/17 11:02:09;;;;;;;5.13;4.70;;;10.00;99.90;;;;;;5054537;28;20830;-49
2022/03/17 11:04:39;;;;;;;6.23;4.70;;;10.00;99.90;;;;;;5051569;28;20423;-46
2022/03/17 11:07:13;;;;;;;5.00;3.90;;;10.00;99.90;;;;;;5063028;28;20478;-48
2022/03/17 11:09:44;;;;;;;4.63;4.23;;;10.00;99.90;;;;;;5054547;28;20439;-45
2022/03/17 11:12:17;;;;;;;4.73;4.20;;;10.00;99.90;;;;;;5060703;28;20554;-48
2022/03/17 11:14:47;;;;;;;4.53;4.13;;;10.00;99.90;;;;;;5054464;28;20483;-49
2022/03/17 11:17:18;;;;;;;3.87;3.57;;;10.00;99.90;;;;;;5055175;28;20993;-48
2022/03/17 11:19:47;;;;;;;6.87;4.00;;;10.00;99.90;;;;;;5071855;28;20444;-47
2022/03/17 11:22:17;;;;;;;4.13;3.73;;;10.00;99.90;;;;;;5065434;28;20493;-47
2022/03/17 11:24:46;;;;;;;6.90;3.70;;;10.00;99.90;;;;;;5050857;28;20981;-47
2022/03/17 11:27:15;;;;;;;4.50;4.10;;;10.00;99.90;;;;;;5051092;28;20846;-48
2022/03/17 11:29:46;;;;;;;4.03;3.70;;;10.00;99.90;;;;;;5059431;28;20499;-47
2022/03/17 11:32:28;;;;;;;5.13;3.20;;;10.00;99.90;;;;;;5056489;28;20478;-49
2022/03/17 11:35:09;;;;;;;4.70;3.80;;;10.00;99.90;;;;;;5050679;28;20950;-48
2022/03/17 11:37:37;;;;;;;4.27;3.67;;;10.00;99.90;;;;;;5064832;28;20981;-48
2022/03/17 11:40:10;;;;;;;5.40;3.83;;;10.00;99.90;;;;;;5068770;28;20434;-48
2022/03/17 11:42:42;;;;;;;4.97;3.23;;;10.00;99.90;;;;;;5049710;28;20474;-50
2022/03/17 11:45:28;;;;;;;3.70;3.17;;;10.00;99.90;;;;;;5059551;28;20474;-47
2022/03/17 11:47:58;;;;;;;3.63;3.30;;;10.00;99.90;;;;;;5054343;28;20490;-49
2022/03/17 11:50:31;;;;;;;4.30;3.70;;;10.00;99.90;;;;;;5033363;28;20431;-47
2022/03/17 11:53:01;;;;;;;3.80;3.20;;;10.00;99.90;;;;;;5067786;28;20466;-46
2022/03/17 11:55:37;;;;;;;3.43;2.70;;;10.00;99.90;;;;;;5070961;28;20933;-49
2022/03/17 11:58:25;;;;;;;4.30;3.50;;;10.00;99.90;;;;;;5070639;28;20965;-46
2022/03/17 12:01:01;;;;;;;6.17;3.30;;;10.00;99.90;;;;;;5069971;28;20519;-48
2022/03/17 12:03:31;;;;;;;3.50;3.20;;;10.00;99.90;;;;;;5070681;28;20468;-48
2022/03/17 12:06:08;;;;;;;3.43;3.13;;;10.00;99.90;;;;;;5069976;28;20426;-46
2022/03/17 12:08:38;;;;;;;5.20;3.40;;;10.00;99.90;;;;;;5071121;28;20445;-48
2022/03/17 12:11:10;;;;;;;3.77;3.00;;;10.00;99.90;;;;;;5058543;28;20514;-48
2022/03/17 12:13:38;;;;;;;3.70;3.23;;;10.00;99.90;;;;;;5051138;28;20837;-47
2022/03/17 12:16:08;;;;;;;4.33;3.27;;;10.00;99.90;;;;;;5060513;28;20446;-47
2022/03/17 12:19:00;;;;;;;4.60;3.13;;;10.00;99.90;;;;;;5070601;28;20444;-48
2022/03/17 12:22:05;;;;;;;4.53;2.80;;;10.00;99.90;;;;;;5068679;28;20453;-47
2022/03/17 12:24:35;;;;;;;3.73;2.87;;;10.00;99.90;;;;;;5068185;28;20438;-49
2022/03/17 12:27:07;;;;;;;6.53;3.13;;;10.00;99.90;;;;;;5066395;28;20458;-47
2022/03/17 12:29:36;;;;;;;5.87;3.63;;;10.00;99.90;;;;;;5040745;28;20829;-50
2022/03/17 12:32:10;;;;;;;4.90;3.40;;;10.00;99.90;;;;;;5055418;28;20997;-45
2022/03/17 12:34:39;;;;;;;2.73;2.53;;;10.00;99.90;;;;;;5066700;28;20436;-50
2022/03/17 12:37:08;;;;;;;3.20;2.77;;;10.00;99.90;;;;;;5066237;28;20474;-48
2022/03/17 12:39:40;;;;;;;3.20;2.90;;;10.00;99.90;;;;;;5070413;28;20430;-48
2022/03/17 12:42:20;;;;;;;2.97;2.33;;;10.00;99.90;;;;;;5069472;28;20492;-50
2022/03/17 12:44:52;;;;;;;3.20;2.90;;;10.00;99.90;;;;;;5058856;28;20463;-48
2022/03/17 12:47:21;;;;;;;3.00;2.53;;;10.00;99.90;;;;;;5060562;28;21245;-48
2022/03/17 12:49:50;;;;;;;4.60;2.77;;;10.00;99.90;;;;;;5050767;28;20434;-48
2022/03/17 12:52:21;;;;;;;3.97;2.80;;;10.00;99.90;;;;;;5055344;28;20585;-49
2022/03/17 12:54:50;;;;;;;2.70;2.50;;;10.00;99.90;;;;;;5051053;28;20431;-49
2022/03/17 12:57:20;;;;;;;3.93;2.63;;;10.00;99.90;;;;;;5064195;28;20751;-46
2022/03/17 12:59:49;;;;;;;6.47;2.70;;;10.00;99.90;;;;;;5058124;28;20453;-47
2022/03/17 13:02:18;;;;;;;3.20;2.77;;;10.00;99.90;;;;;;5057397;28;21009;-48
2022/03/17 13:04:49;;;;;;;3.43;3.13;;;10.00;99.90;;;;;;5058976;28;20532;-49
2022/03/17 13:07:18;;;;;;;2.60;2.40;;;10.00;99.90;;;;;;5062724;28;20562;-49
2022/03/17 13:09:47;;;;;;;3.17;2.87;;;10.00;99.90;;;;;;5049293;28;20533;-49